createdAt,value
2022-10-04T00:01:11.475Z,5.35
2022-10-04T00:03:21.903Z,6.20
2022-10-04T00:05:25.477Z,5.40
2022-10-04T00:07:33.953Z,6.47
2022-10-04T00:10:01.122Z,6.88
2022-10-04T00:12:04.322Z,6.20
2022-10-04T00:14:14.061Z,5.95
2022-10-04T00:16:32.443Z,5.55
2022-10-04T00:18:45.068Z,5.72
2022-10-04T00:20:50.704Z,6.70
2022-10-04T00:23:23.430Z,6.20
2022-10-04T00:25:34.822Z,6.50
2022-10-04T00:27:38.555Z,5.82
2022-10-04T00:29:44.813Z,6.18
2022-10-04T00:32:21.514Z,6.20
2022-10-04T00:34:30.292Z,5.65
2022-10-04T00:36:47.545Z,5.53
2022-10-04T00:39:09.128Z,5.95
2022-10-04T00:41:13.449Z,5.35
2022-10-04T00:43:23.334Z,5.53
2022-10-04T00:45:40.760Z,5.30
2022-10-04T00:47:48.073Z,4.78
2022-10-04T00:49:56.165Z,5.70
2022-10-04T00:52:27.176Z,5.18
2022-10-04T00:54:41.412Z,5.57
2022-10-04T00:57:07.489Z,5.05
2022-10-04T00:59:39.673Z,5.18
2022-10-04T01:01:45.589Z,5.13
2022-10-04T01:03:47.963Z,4.80
2022-10-04T01:05:56.719Z,4.65
2022-10-04T01:08:17.945Z,4.68
2022-10-04T01:10:31.389Z,4.40
2022-10-04T01:12:44.973Z,4.50
2022-10-04T01:15:06.314Z,3.70
2022-10-04T01:17:09.021Z,4.63
2022-10-04T01:19:22.606Z,4.40
2022-10-04T01:21:31.487Z,4.30
2022-10-04T01:23:46.515Z,4.03
2022-10-04T01:25:51.306Z,3.72
2022-10-04T01:27:53.185Z,3.00
2022-10-04T01:29:54.894Z,3.50
2022-10-04T01:31:59.983Z,3.25
2022-10-04T01:34:02.637Z,3.50
2022-10-04T01:36:04.442Z,3.60
2022-10-04T01:38:07.592Z,3.05
2022-10-04T01:40:11.115Z,3.35
2022-10-04T01:42:18.768Z,3.03
2022-10-04T01:44:37.197Z,3.47
2022-10-04T01:46:41.183Z,3.10
2022-10-04T01:48:45.950Z,3.30
2022-10-04T01:51:13.133Z,3.78
2022-10-04T01:53:27.396Z,3.13
2022-10-04T01:55:37.682Z,2.75
2022-10-04T01:57:47.808Z,3.45
2022-10-04T02:00:09.462Z,2.90
2022-10-04T02:02:24.117Z,3.78
2022-10-04T02:04:32.712Z,3.40
2022-10-04T02:06:40.356Z,3.25
2022-10-04T02:08:49.599Z,3.50
2022-10-04T02:10:54.689Z,4.07
2022-10-04T02:12:57.996Z,3.15
2022-10-04T02:15:02.712Z,3.40
2022-10-04T02:17:10.622Z,4.03
2022-10-04T02:19:14.435Z,3.50
2022-10-04T02:21:17.696Z,3.90
2022-10-04T02:23:21.602Z,3.08
2022-10-04T02:25:23.392Z,3.78
2022-10-04T02:27:31.328Z,3.60
2022-10-04T02:29:33.494Z,3.67
2022-10-04T02:31:56.392Z,3.15
2022-10-04T02:34:00.330Z,3.50
2022-10-04T02:36:02.567Z,2.97
2022-10-04T02:38:14.853Z,3.20
2022-10-04T02:40:20.661Z,4.03
2022-10-04T02:42:36.108Z,3.60
2022-10-04T02:44:44.457Z,3.22
2022-10-04T02:46:51.902Z,3.67
2022-10-04T02:49:21.023Z,3.10
2022-10-04T02:51:36.247Z,3.97
2022-10-04T02:54:03.458Z,3.40
2022-10-04T02:56:05.970Z,3.08
2022-10-04T02:58:11.009Z,3.20
2022-10-04T03:00:12.663Z,3.75
2022-10-04T03:02:29.883Z,3.38
2022-10-04T03:04:37.918Z,3.78
2022-10-04T03:06:39.747Z,3.67
2022-10-04T03:08:48.862Z,3.33
2022-10-04T03:10:51.132Z,3.33
2022-10-04T03:12:53.706Z,3.10
2022-10-04T03:14:55.819Z,3.75
2022-10-04T03:17:01.812Z,3.35
2022-10-04T03:19:07.315Z,3.60
2022-10-04T03:21:12.915Z,3.63
2022-10-04T03:23:17.339Z,3.90
2022-10-04T03:25:23.951Z,2.92
2022-10-04T03:27:34.012Z,3.28
2022-10-04T03:29:40.715Z,3.60
2022-10-04T03:31:47.233Z,3.80
2022-10-04T03:33:50.203Z,3.05
2022-10-04T03:35:55.122Z,3.70
2022-10-04T03:37:59.144Z,3.28
2022-10-04T03:40:15.058Z,4.30
2022-10-04T03:42:46.069Z,3.60
2022-10-04T03:44:56.870Z,3.00
2022-10-04T03:49:07.322Z,3.45
2022-10-04T03:51:16.330Z,3.75
2022-10-04T03:53:32.107Z,3.55
2022-10-04T03:55:43.348Z,4.10
2022-10-04T03:57:45.153Z,3.83
2022-10-04T03:59:48.131Z,4.20
2022-10-04T04:02:18.396Z,3.78
2022-10-04T04:04:31.196Z,3.70
2022-10-04T04:06:46.859Z,3.30
2022-10-04T04:09:02.256Z,4.25
2022-10-04T04:11:08.281Z,4.07
2022-10-04T04:13:24.211Z,4.35
2022-10-04T04:15:31.475Z,3.55
2022-10-04T04:17:52.462Z,3.75
2022-10-04T04:20:08.115Z,3.78
2022-10-04T04:22:16.865Z,4.15
2022-10-04T04:24:32.265Z,4.20
2022-10-04T04:26:35.153Z,3.78
2022-10-04T04:28:50.271Z,4.03
2022-10-04T04:30:57.655Z,3.88
2022-10-04T04:33:08.443Z,3.88
2022-10-04T04:37:23.395Z,3.80
2022-10-04T04:39:34.359Z,4.80
2022-10-04T04:41:36.399Z,3.83
2022-10-04T04:43:43.723Z,3.45
2022-10-04T04:46:03.021Z,3.28
2022-10-04T04:48:15.503Z,3.20
2022-10-04T04:50:20.276Z,3.08
2022-10-04T04:52:27.085Z,3.25
2022-10-04T04:54:28.931Z,3.15
2022-10-04T04:56:31.481Z,2.80
2022-10-04T04:58:43.534Z,2.45
2022-10-04T05:00:54.511Z,2.15
2022-10-04T05:03:02.020Z,1.98
2022-10-04T05:05:22.476Z,2.17
2022-10-04T05:07:24.827Z,1.92
2022-10-04T05:09:35.798Z,1.55
2022-10-04T05:11:39.625Z,1.52
2022-10-04T05:13:47.485Z,1.27
2022-10-04T05:15:53.998Z,1.10
2022-10-04T05:17:55.761Z,1.38
2022-10-04T05:20:01.417Z,1.40
2022-10-04T05:22:09.819Z,1.38
2022-10-04T05:24:17.943Z,1.10
2022-10-04T05:26:27.946Z,1.00
2022-10-04T05:28:30.216Z,1.00
2022-10-04T05:30:31.957Z,1.17
2022-10-04T05:32:39.664Z,1.05
2022-10-04T05:34:48.793Z,0.80
2022-10-04T05:36:53.638Z,1.00
2022-10-04T05:39:06.153Z,0.80
2022-10-04T05:41:20.952Z,1.02
2022-10-04T05:43:44.721Z,1.17
2022-10-04T05:45:46.571Z,0.85
2022-10-04T05:47:51.348Z,0.68
2022-10-04T05:49:55.733Z,1.08
2022-10-04T05:52:02.503Z,1.27
2022-10-04T05:54:04.858Z,1.52
2022-10-04T05:56:18.455Z,0.95
2022-10-04T05:58:44.346Z,0.80
2022-10-04T06:00:55.477Z,0.80
2022-10-04T06:03:24.226Z,0.90
2022-10-04T06:05:55.575Z,0.80
2022-10-04T06:08:08.391Z,0.90
2022-10-04T06:10:40.959Z,0.93
2022-10-04T06:13:00.780Z,0.70
2022-10-04T06:15:27.319Z,0.65
2022-10-04T06:17:44.283Z,0.90
2022-10-04T06:20:11.559Z,0.70
2022-10-04T06:22:17.407Z,0.63
2022-10-04T06:24:27.117Z,1.00
2022-10-04T06:26:37.588Z,1.10
2022-10-04T06:29:06.446Z,0.80
2022-10-04T06:31:25.893Z,0.80
2022-10-04T06:34:06.225Z,0.73
2022-10-04T06:36:26.796Z,0.70
2022-10-04T06:39:13.311Z,0.70
2022-10-04T06:41:38.362Z,0.98
2022-10-04T06:43:46.223Z,0.70
2022-10-04T06:45:56.845Z,0.68
2022-10-04T06:48:36.998Z,1.08
2022-10-04T06:51:21.984Z,0.60
2022-10-04T06:54:08.678Z,0.95
2022-10-04T06:56:23.009Z,0.70
2022-10-04T06:58:43.349Z,0.70
2022-10-04T07:01:09.167Z,1.02
2022-10-04T07:03:17.492Z,0.73
2022-10-04T07:05:30.518Z,0.50
2022-10-04T07:07:36.320Z,0.60
2022-10-04T07:09:42.738Z,0.60
2022-10-04T07:12:08.629Z,0.90
2022-10-04T07:14:17.049Z,0.70
2022-10-04T07:16:28.032Z,0.70
2022-10-04T07:18:37.674Z,0.50
2022-10-04T07:20:40.230Z,0.40
2022-10-04T07:23:00.348Z,0.57
2022-10-04T07:25:05.543Z,0.73
2022-10-04T07:27:13.391Z,0.50
2022-10-04T07:29:22.703Z,0.50
2022-10-04T07:31:28.668Z,0.60
2022-10-04T07:33:35.872Z,0.60
2022-10-04T07:35:48.999Z,0.40
2022-10-04T07:38:00.367Z,0.60
2022-10-04T07:40:19.004Z,0.43
2022-10-04T07:42:26.562Z,1.08
2022-10-04T07:44:40.917Z,0.60
2022-10-04T07:46:42.557Z,0.40
2022-10-04T07:48:44.429Z,0.50
2022-10-04T07:51:05.338Z,0.60
2022-10-04T07:55:52.289Z,0.60
2022-10-04T07:58:21.145Z,0.40
2022-10-04T08:00:27.680Z,0.40
2022-10-04T08:02:35.218Z,0.50
2022-10-04T08:04:37.563Z,0.50
2022-10-04T08:06:52.680Z,0.63
2022-10-04T08:09:11.918Z,0.55
2022-10-04T08:11:51.710Z,0.63
2022-10-04T08:14:11.228Z,0.50
2022-10-04T08:16:23.831Z,0.40
2022-10-04T08:18:25.473Z,0.50
2022-10-04T08:20:36.487Z,0.60
2022-10-04T08:23:03.866Z,0.60
2022-10-04T08:25:20.794Z,0.70
2022-10-04T08:28:08.646Z,0.50
2022-10-04T08:30:25.707Z,0.50
2022-10-04T08:32:39.554Z,0.60
2022-10-04T08:34:53.209Z,0.50
2022-10-04T08:37:16.701Z,0.20
2022-10-04T08:39:27.941Z,0.28
2022-10-04T08:41:44.880Z,0.35
2022-10-04T08:44:18.161Z,0.30
2022-10-04T08:46:46.812Z,0.60
2022-10-04T08:49:13.006Z,0.40
2022-10-04T08:51:52.467Z,0.30
2022-10-04T08:54:13.505Z,0.50
2022-10-04T08:56:48.397Z,0.40
2022-10-04T08:59:26.933Z,0.82
2022-10-04T09:02:00.183Z,0.30
2022-10-04T09:04:40.867Z,0.22
2022-10-04T09:06:48.307Z,0.20
2022-10-04T09:09:22.283Z,0.25
2022-10-04T09:11:41.577Z,0.47
2022-10-04T09:14:14.424Z,0.75
2022-10-04T09:16:33.230Z,0.40
2022-10-04T09:18:56.187Z,0.20
2022-10-04T09:21:14.308Z,0.20
2022-10-04T09:23:31.124Z,0.40
2022-10-04T09:25:58.942Z,0.30
2022-10-04T09:28:21.132Z,0.40
2022-10-04T09:30:40.403Z,0.30
2022-10-04T09:33:03.256Z,0.40
2022-10-04T09:35:31.594Z,0.50
2022-10-04T09:37:47.859Z,0.30
2022-10-04T09:40:18.188Z,0.22
2022-10-04T09:42:42.012Z,0.30
2022-10-04T09:44:57.570Z,0.57
2022-10-04T09:47:22.184Z,0.60
2022-10-04T09:50:00.780Z,0.50
2022-10-04T09:52:32.698Z,0.60
2022-10-04T09:55:11.516Z,0.70
2022-10-04T09:57:26.457Z,0.60
2022-10-04T09:59:46.011Z,0.63
2022-10-04T10:02:29.015Z,0.63
2022-10-04T10:05:00.144Z,0.70
2022-10-04T10:07:13.793Z,0.73
2022-10-04T10:09:47.853Z,0.93
2022-10-04T10:12:36.225Z,0.80
2022-10-04T10:15:13.489Z,1.42
2022-10-04T10:17:36.529Z,1.30
2022-10-04T10:20:16.829Z,1.10
2022-10-04T10:22:38.571Z,1.15
2022-10-04T10:24:54.832Z,0.90
2022-10-04T10:27:50.759Z,0.95
2022-10-04T10:30:25.896Z,0.80
2022-10-04T10:32:27.562Z,0.70
2022-10-04T10:34:58.295Z,0.60
2022-10-04T10:37:37.431Z,0.75
2022-10-04T10:39:47.265Z,0.75
2022-10-04T10:42:19.910Z,0.60
2022-10-04T10:45:05.025Z,0.55
2022-10-04T10:47:16.088Z,0.50
2022-10-04T10:49:44.969Z,0.60
2022-10-04T10:52:20.300Z,0.57
2022-10-04T10:54:37.495Z,0.20
2022-10-04T10:57:03.504Z,0.38
2022-10-04T10:59:20.761Z,0.52
2022-10-04T11:01:44.832Z,0.68
2022-10-04T11:04:04.797Z,0.20
2022-10-04T11:07:01.455Z,0.27
2022-10-04T11:09:34.295Z,0.22
2022-10-04T11:12:05.775Z,0.30
2022-10-04T11:14:25.633Z,0.20
2022-10-04T11:16:35.018Z,0.30
2022-10-04T11:19:08.054Z,0.40
2022-10-04T11:21:35.131Z,0.40
2022-10-04T11:24:13.867Z,0.30
2022-10-04T11:26:52.637Z,0.30
2022-10-04T11:29:20.687Z,0.57
2022-10-04T11:31:45.990Z,0.30
2022-10-04T11:33:56.300Z,0.28
2022-10-04T11:36:24.588Z,0.40
2022-10-04T11:38:53.896Z,0.30
2022-10-04T11:41:11.051Z,0.38
2022-10-04T11:43:42.769Z,0.40
2022-10-04T11:46:17.993Z,0.30
2022-10-04T11:48:47.650Z,0.40
2022-10-04T11:51:18.496Z,0.40
2022-10-04T11:58:02.932Z,0.50
2022-10-04T12:00:33.465Z,0.40
2022-10-04T12:03:05.065Z,0.40
2022-10-04T12:05:31.105Z,0.40
2022-10-04T12:07:50.789Z,0.40
2022-10-04T12:10:23.604Z,0.32
2022-10-04T12:12:57.686Z,0.30
2022-10-04T12:15:14.573Z,0.45
2022-10-04T12:17:38.574Z,0.30
2022-10-04T12:19:54.228Z,0.50
2022-10-04T12:22:33.463Z,0.60
2022-10-04T12:24:53.384Z,0.40
2022-10-04T12:27:13.291Z,0.40
2022-10-04T12:30:03.441Z,0.32
2022-10-04T12:32:20.145Z,0.40
2022-10-04T12:34:41.994Z,0.40
2022-10-04T12:37:17.058Z,0.38
2022-10-04T12:39:44.466Z,0.30
2022-10-04T12:41:52.134Z,0.28
2022-10-04T12:44:07.945Z,0.30
2022-10-04T12:46:30.634Z,0.45
2022-10-04T12:49:11.664Z,0.40
2022-10-04T12:53:41.521Z,0.30
2022-10-04T12:56:04.721Z,0.45
2022-10-04T12:58:16.521Z,0.40
2022-10-04T13:00:23.032Z,0.38
2022-10-04T13:02:48.995Z,0.50
2022-10-04T13:04:55.337Z,0.50
2022-10-04T13:07:21.752Z,0.50
2022-10-04T13:09:55.306Z,0.70
2022-10-04T13:12:29.403Z,0.60
2022-10-04T13:14:40.159Z,0.40
2022-10-04T13:19:34.132Z,0.70
2022-10-04T13:22:06.832Z,0.68
2022-10-04T13:24:28.647Z,0.60
2022-10-04T13:26:36.175Z,0.65
2022-10-04T13:29:13.804Z,1.00
2022-10-04T13:31:34.824Z,0.55
2022-10-04T13:33:49.367Z,0.93
2022-10-04T13:36:11.709Z,0.90
2022-10-04T13:38:34.961Z,0.70
2022-10-04T13:40:42.878Z,0.40
2022-10-04T13:43:09.220Z,0.50
2022-10-04T13:45:36.356Z,0.40
2022-10-04T13:48:21.608Z,0.70
2022-10-04T13:50:38.739Z,0.45
2022-10-04T13:53:27.053Z,0.60
2022-10-04T13:55:53.093Z,0.40
2022-10-04T13:58:22.620Z,0.30
2022-10-04T14:00:54.915Z,0.30
2022-10-04T14:03:13.393Z,0.30
2022-10-04T14:05:50.260Z,0.68
2022-10-04T14:08:36.774Z,0.40
2022-10-04T14:11:16.859Z,0.40
2022-10-04T14:13:45.752Z,0.50
2022-10-04T14:16:05.785Z,0.40
2022-10-04T14:18:23.478Z,0.38
2022-10-04T14:20:33.549Z,0.35
2022-10-04T14:22:53.913Z,0.60
2022-10-04T14:25:31.044Z,0.45
2022-10-04T14:28:06.451Z,0.50
2022-10-04T14:30:12.727Z,0.45
2022-10-04T14:32:41.912Z,0.32
2022-10-04T14:34:59.695Z,0.50
2022-10-04T14:37:01.308Z,0.30
2022-10-04T14:39:59.466Z,0.32
2022-10-04T14:42:34.128Z,1.23
2022-10-04T14:45:00.001Z,0.45
2022-10-04T14:47:27.875Z,0.40
2022-10-04T14:50:00.242Z,0.40
2022-10-04T14:52:16.852Z,0.40
2022-10-04T14:54:52.585Z,0.70
2022-10-04T14:57:00.737Z,0.45
2022-10-04T14:59:32.970Z,0.50
2022-10-04T15:01:39.416Z,0.40
2022-10-04T15:04:22.118Z,0.38
2022-10-04T15:06:38.177Z,0.40
2022-10-04T15:09:17.757Z,0.50
2022-10-04T15:11:40.007Z,0.60
2022-10-04T15:13:55.693Z,0.70
2022-10-04T15:16:10.057Z,0.63
2022-10-04T15:19:04.279Z,0.57
2022-10-04T15:21:45.808Z,0.95
2022-10-04T15:24:10.807Z,0.47
2022-10-04T15:26:18.634Z,0.55
2022-10-04T15:29:06.226Z,0.55
2022-10-04T15:31:26.496Z,0.50
2022-10-04T15:33:28.282Z,0.60
2022-10-04T15:35:36.999Z,0.25
2022-10-04T15:37:50.001Z,0.60
2022-10-04T15:40:07.621Z,0.30
2022-10-04T15:42:21.466Z,0.95
2022-10-04T15:45:02.727Z,0.20
2022-10-04T15:47:07.444Z,0.50
2022-10-04T15:49:25.103Z,0.45
2022-10-04T15:51:48.750Z,0.85
2022-10-04T15:54:14.565Z,0.40
2022-10-04T15:56:40.934Z,0.40
2022-10-04T15:58:54.486Z,0.40
2022-10-04T16:01:41.339Z,0.40
2022-10-04T16:04:09.986Z,0.70
2022-10-04T16:06:36.323Z,0.82
2022-10-04T16:09:11.282Z,0.55
2022-10-04T16:11:38.033Z,0.40
2022-10-04T16:13:53.933Z,0.40
2022-10-04T16:16:17.724Z,0.47
2022-10-04T16:18:33.565Z,0.68
2022-10-04T16:20:56.263Z,0.20
2022-10-04T16:23:25.280Z,0.30
2022-10-04T16:25:38.209Z,0.35
2022-10-04T16:27:54.957Z,0.45
2022-10-04T16:30:26.102Z,0.93
2022-10-04T16:34:53.501Z,0.22
2022-10-04T16:37:15.948Z,0.50
2022-10-04T16:40:00.591Z,0.43
2022-10-04T16:42:06.899Z,0.50
2022-10-04T16:44:39.941Z,0.30
2022-10-04T16:46:45.175Z,0.40
2022-10-04T16:49:21.658Z,0.50
2022-10-04T16:51:51.498Z,1.23
2022-10-04T16:54:05.293Z,0.52
2022-10-04T16:56:16.507Z,0.40
2022-10-04T16:58:27.202Z,0.50
2022-10-04T17:00:36.228Z,0.47
2022-10-04T17:02:49.159Z,0.40
2022-10-04T17:05:01.453Z,0.43
2022-10-04T17:07:36.349Z,0.50
2022-10-04T17:10:16.193Z,0.40
2022-10-04T17:12:23.737Z,0.50
2022-10-04T17:14:31.709Z,0.57
2022-10-04T17:16:40.010Z,0.50
2022-10-04T17:19:11.470Z,0.32
2022-10-04T17:21:29.153Z,0.95
2022-10-04T17:23:49.532Z,0.82
2022-10-04T17:26:05.178Z,0.43
2022-10-04T17:28:21.104Z,0.80
2022-10-04T17:30:30.299Z,0.38
2022-10-04T17:32:46.921Z,0.40
2022-10-04T17:35:12.323Z,0.65
2022-10-04T17:37:20.943Z,0.50
2022-10-04T17:39:33.926Z,0.60
2022-10-04T17:42:12.277Z,0.40
2022-10-04T17:44:35.869Z,0.40
2022-10-04T17:46:48.499Z,0.40
2022-10-04T17:49:17.480Z,0.55
2022-10-04T17:52:01.909Z,0.35
2022-10-04T17:54:37.121Z,0.50
2022-10-04T17:56:53.911Z,0.40
2022-10-04T17:59:12.826Z,0.40
2022-10-04T18:01:34.841Z,0.40
2022-10-04T18:04:15.075Z,0.85
2022-10-04T18:06:28.378Z,0.75
2022-10-04T18:08:39.185Z,0.65
2022-10-04T18:13:01.110Z,0.40
2022-10-04T18:15:26.715Z,0.35
2022-10-04T18:17:35.784Z,1.00
2022-10-04T18:19:50.227Z,0.50
2022-10-04T18:21:54.324Z,1.10
2022-10-04T18:24:02.233Z,0.70
2022-10-04T18:26:18.256Z,0.73
2022-10-04T18:28:21.996Z,0.63
2022-10-04T18:30:24.330Z,0.50
2022-10-04T18:32:25.953Z,0.45
2022-10-04T18:34:29.871Z,0.55
2022-10-04T18:36:48.962Z,0.65
2022-10-04T18:39:19.109Z,0.50
2022-10-04T18:41:23.320Z,0.50
2022-10-04T18:43:40.441Z,0.65
2022-10-04T18:46:22.247Z,0.57
2022-10-04T18:48:37.523Z,0.55
2022-10-04T18:50:47.141Z,0.50
2022-10-04T18:52:58.332Z,0.90
2022-10-04T18:55:06.132Z,0.50
2022-10-04T18:57:24.201Z,0.70
2022-10-04T19:00:09.582Z,0.75
2022-10-04T19:02:38.962Z,0.80
2022-10-04T19:04:49.906Z,0.70
2022-10-04T19:06:54.855Z,0.80
2022-10-04T19:09:25.657Z,0.70
2022-10-04T19:11:59.651Z,0.60
2022-10-04T19:14:20.035Z,0.60
2022-10-04T19:16:21.750Z,0.60
2022-10-04T19:18:42.150Z,0.95
2022-10-04T19:20:52.122Z,0.85
2022-10-04T19:23:01.331Z,0.77
2022-10-04T19:25:06.267Z,1.05
2022-10-04T19:27:31.923Z,0.52
2022-10-04T19:29:39.504Z,0.82
2022-10-04T19:32:00.579Z,0.98
2022-10-04T19:34:11.541Z,0.57
2022-10-04T19:36:20.978Z,0.50
2022-10-04T19:38:52.476Z,0.98
2022-10-04T19:41:13.535Z,0.80
2022-10-04T19:43:23.677Z,0.60
2022-10-04T19:45:58.999Z,0.60
2022-10-04T19:48:08.562Z,0.80
2022-10-04T19:50:25.004Z,0.43
2022-10-04T19:52:38.742Z,1.08
2022-10-04T19:54:40.625Z,0.70
2022-10-04T19:56:48.322Z,0.60
2022-10-04T19:59:14.454Z,0.40
2022-10-04T20:01:23.323Z,0.35
2022-10-04T20:03:25.193Z,0.60
2022-10-04T20:05:27.065Z,0.70
2022-10-04T20:07:29.050Z,0.70
2022-10-04T20:09:44.089Z,0.80
2022-10-04T20:11:48.495Z,0.65
2022-10-04T20:14:07.301Z,0.80
2022-10-04T20:16:09.113Z,1.08
2022-10-04T20:18:29.766Z,0.65
2022-10-04T20:20:43.442Z,0.50
2022-10-04T20:22:54.086Z,0.60
2022-10-04T20:24:57.957Z,0.90
2022-10-04T20:27:17.498Z,0.70
2022-10-04T20:29:37.244Z,0.57
2022-10-04T20:31:42.445Z,1.48
2022-10-04T20:33:46.078Z,0.50
2022-10-04T20:36:08.399Z,0.60
2022-10-04T20:38:31.632Z,1.05
2022-10-04T20:40:40.241Z,0.60
2022-10-04T20:42:41.874Z,0.40
2022-10-04T20:45:20.738Z,0.82
2022-10-04T20:47:40.347Z,0.98
2022-10-04T20:49:45.043Z,0.88
2022-10-04T20:51:48.666Z,0.40
2022-10-04T20:53:51.165Z,0.70
2022-10-04T20:56:20.495Z,0.45
2022-10-04T20:58:35.379Z,0.63
2022-10-04T21:00:52.754Z,0.70
2022-10-04T21:03:14.575Z,0.60
2022-10-04T21:05:24.736Z,0.73
2022-10-04T21:07:27.290Z,0.95
2022-10-04T21:09:34.018Z,0.70
2022-10-04T21:11:46.737Z,0.63
2022-10-04T21:13:49.689Z,0.47
2022-10-04T21:16:00.826Z,0.60
2022-10-04T21:18:05.117Z,1.05
2022-10-04T21:20:15.704Z,0.60
2022-10-04T21:22:17.846Z,0.80
2022-10-04T21:24:29.455Z,0.70
2022-10-04T21:26:32.163Z,0.98
2022-10-04T21:28:35.451Z,0.52
2022-10-04T21:30:37.841Z,0.70
2022-10-04T21:32:40.179Z,0.50
2022-10-04T21:34:53.163Z,0.82
2022-10-04T21:36:56.273Z,0.68
2022-10-04T21:39:07.729Z,0.77
2022-10-04T21:41:10.136Z,0.70
2022-10-04T21:43:12.339Z,0.38
2022-10-04T21:45:14.948Z,1.05
2022-10-04T21:47:17.982Z,0.85
2022-10-04T21:49:20.206Z,0.55
2022-10-04T21:51:22.226Z,0.52
2022-10-04T21:53:24.337Z,0.88
2022-10-04T21:55:26.704Z,0.80
2022-10-04T21:57:33.212Z,0.50
2022-10-04T21:59:37.640Z,1.60
2022-10-04T22:01:39.843Z,0.70
2022-10-04T22:03:41.980Z,1.13
2022-10-04T22:05:44.837Z,0.60
2022-10-04T22:07:46.977Z,0.63
2022-10-04T22:09:49.145Z,0.80
2022-10-04T22:11:51.337Z,0.60
2022-10-04T22:13:53.212Z,1.00
2022-10-04T22:15:55.591Z,0.80
2022-10-04T22:17:57.961Z,0.45
2022-10-04T22:19:59.741Z,0.70
2022-10-04T22:22:01.454Z,0.50
2022-10-04T22:24:04.607Z,0.60
2022-10-04T22:26:27.764Z,0.70
2022-10-04T22:28:30.899Z,0.80
2022-10-04T22:30:32.613Z,0.70
2022-10-04T22:32:34.312Z,0.55
2022-10-04T22:34:36.094Z,1.88
2022-10-04T22:36:39.685Z,0.50
2022-10-04T22:39:12.154Z,0.63
2022-10-04T22:41:16.217Z,0.50
2022-10-04T22:43:18.219Z,0.60
2022-10-04T22:45:22.200Z,0.77
2022-10-04T22:47:24.950Z,0.77
2022-10-04T22:49:35.531Z,0.60
2022-10-04T22:51:39.499Z,0.80
2022-10-04T22:53:46.318Z,0.60
2022-10-04T22:55:49.195Z,0.75
2022-10-04T22:57:51.160Z,0.70
2022-10-04T22:59:53.181Z,0.93
2022-10-04T23:01:54.985Z,0.55
2022-10-04T23:03:58.493Z,0.70
2022-10-04T23:06:02.133Z,0.70
2022-10-04T23:08:04.228Z,0.65
2022-10-04T23:10:06.858Z,0.63
2022-10-04T23:12:09.831Z,0.50
2022-10-04T23:14:12.365Z,0.60
2022-10-04T23:16:18.659Z,0.40
2022-10-04T23:18:20.463Z,0.75
2022-10-04T23:20:22.853Z,0.52
2022-10-04T23:22:30.375Z,0.82
2022-10-04T23:24:32.104Z,0.70
2022-10-04T23:26:40.737Z,1.05
2022-10-04T23:28:42.540Z,0.30
2022-10-04T23:30:46.155Z,0.65
2022-10-04T23:32:51.190Z,0.80
2022-10-04T23:34:56.686Z,0.70
2022-10-04T23:36:59.204Z,0.30
2022-10-04T23:39:14.740Z,0.50
2022-10-04T23:41:19.289Z,0.82
2022-10-04T23:43:25.339Z,0.60
2022-10-04T23:45:29.597Z,0.65
2022-10-04T23:47:36.174Z,0.40
2022-10-04T23:49:38.268Z,0.50
2022-10-04T23:51:39.918Z,0.38
2022-10-04T23:53:43.742Z,0.40
2022-10-04T23:55:46.282Z,0.50
2022-10-04T23:57:48.800Z,0.50
2022-10-04T23:59:51.206Z,0.63
